Colton, Texas
Current Conditions -  °F | °C
As of 12:53 PM on Saturday 25 Oct 2014 (Local Time) from KAUS Reporting Station
Clear Clear  
Wind Chill: 83°   Ceiling: Unl
Heat Index: 83°   Visibility: 10mi
Dew Point: 59°   Wind: 9mph
Humidity: 44%   Direction: 220°SW
Pressure: 30.15"   Gusts: NA
Location:  30.1791°N, 97.7294°W
Report Text: KAUS 251753Z 22008KT 10SM CLR 28/15 A3015 RMK AO2 SLP202 T02830150 10289 20117 58014
Loading
Personal Weather Stations






























Interactive Weather Map
Tropical Storm Tracking
New forecast layout! Learn more

10-Day Weather Forecast

Advertisements
Track Severe Weather on mobile